createdAt,value
2022-08-12T00:00:09.482Z,1.67
2022-08-12T00:02:55.205Z,1.67
2022-08-12T00:05:57.087Z,1.77
2022-08-12T00:08:47.608Z,1.57
2022-08-12T00:11:33.347Z,1.90
2022-08-12T00:14:20.651Z,1.70
2022-08-12T00:17:06.985Z,2.00
2022-08-12T00:19:52.341Z,1.73
2022-08-12T00:22:39.477Z,1.97
2022-08-12T00:26:21.718Z,2.07
2022-08-12T00:28:31.627Z,1.87
2022-08-12T00:31:18.834Z,2.07
2022-08-12T00:34:05.287Z,1.90
2022-08-12T00:36:50.764Z,2.00
2022-08-12T00:39:36.327Z,1.70
2022-08-12T00:42:12.772Z,1.37
2022-08-12T00:44:43.376Z,1.73
2022-08-12T00:47:24.648Z,1.80
2022-08-12T00:49:54.826Z,1.87
2022-08-12T00:52:23.363Z,1.63
2022-08-12T00:54:53.615Z,1.70
2022-08-12T00:57:24.187Z,1.93
2022-08-12T00:59:54.893Z,1.67
2022-08-12T01:02:26.590Z,1.90
2022-08-12T01:05:14.676Z,1.97
2022-08-12T01:08:01.035Z,2.00
2022-08-12T01:10:49.857Z,2.03
2022-08-12T01:13:20.394Z,2.00
2022-08-12T01:15:51.172Z,2.20
2022-08-12T01:18:21.414Z,1.57
2022-08-12T01:20:55.773Z,2.40
2022-08-12T01:23:50.007Z,1.87
2022-08-12T01:26:21.296Z,2.03
2022-08-12T01:28:51.593Z,1.93
2022-08-12T01:31:21.461Z,2.20
2022-08-12T01:33:59.623Z,1.83
2022-08-12T01:36:29.142Z,2.00
2022-08-12T01:38:59.996Z,2.23
2022-08-12T01:41:31.624Z,1.90
2022-08-12T01:44:02.253Z,2.27
2022-08-12T01:46:43.225Z,1.80
2022-08-12T01:49:29.004Z,2.00
2022-08-12T01:52:21.351Z,2.00
2022-08-12T01:54:52.720Z,2.00
2022-08-12T01:57:58.298Z,2.07
2022-08-12T02:00:19.357Z,2.07
2022-08-12T02:02:54.504Z,2.10
2022-08-12T02:05:50.150Z,2.30
2022-08-12T02:08:52.250Z,1.90
2022-08-12T02:11:25.493Z,2.10
2022-08-12T02:14:18.425Z,1.80
2022-08-12T02:17:05.144Z,2.00
2022-08-12T02:19:49.389Z,2.43
2022-08-12T02:22:28.706Z,2.23
2022-08-12T02:25:02.354Z,2.00
2022-08-12T02:27:36.124Z,2.40
2022-08-12T02:30:08.581Z,2.23
2022-08-12T02:32:40.172Z,2.30
2022-08-12T02:35:10.813Z,2.00
2022-08-12T02:37:40.931Z,2.67
2022-08-12T02:40:12.247Z,2.50
2022-08-12T02:42:47.182Z,2.20
2022-08-12T02:45:21.399Z,2.27
2022-08-12T02:47:59.580Z,1.97
2022-08-12T02:50:32.044Z,2.03
2022-08-12T02:53:01.333Z,2.40
2022-08-12T02:55:34.498Z,2.47
2022-08-12T02:58:12.484Z,2.20
2022-08-12T03:00:45.330Z,2.40
2022-08-12T03:03:14.869Z,2.30
2022-08-12T03:05:50.846Z,2.23
2022-08-12T03:08:32.651Z,2.37
2022-08-12T03:11:06.158Z,2.50
2022-08-12T03:13:46.495Z,2.53
2022-08-12T03:16:15.930Z,2.30
2022-08-12T03:18:45.955Z,2.07
2022-08-12T03:21:17.362Z,2.30
2022-08-12T03:24:09.166Z,2.83
2022-08-12T03:26:38.271Z,2.80
2022-08-12T03:29:08.020Z,2.90
2022-08-12T03:31:37.145Z,2.20
2022-08-12T03:34:07.945Z,2.70
2022-08-12T03:36:37.513Z,2.20
2022-08-12T03:39:36.028Z,2.30
2022-08-12T03:42:28.411Z,2.00
2022-08-12T03:45:27.804Z,2.70
2022-08-12T03:48:19.304Z,2.60
2022-08-12T03:51:06.354Z,2.60
2022-08-12T03:53:52.943Z,2.63
2022-08-12T03:56:38.842Z,2.17
2022-08-12T03:59:26.281Z,2.20
2022-08-12T04:01:57.361Z,2.30
2022-08-12T04:04:29.431Z,2.43
2022-08-12T04:06:57.895Z,2.67
2022-08-12T04:09:26.233Z,2.40
2022-08-12T04:12:11.911Z,2.53
2022-08-12T04:14:40.495Z,2.93
2022-08-12T04:17:08.726Z,2.67
2022-08-12T04:19:38.577Z,2.77
2022-08-12T04:22:06.345Z,2.77
2022-08-12T04:24:36.220Z,2.50
2022-08-12T04:27:06.934Z,2.30
2022-08-12T04:30:17.097Z,2.27
2022-08-12T04:32:23.081Z,2.43
2022-08-12T04:34:52.837Z,2.80
2022-08-12T04:37:20.804Z,3.23
2022-08-12T04:39:49.770Z,2.47
2022-08-12T04:42:19.618Z,2.60
2022-08-12T04:44:48.286Z,2.67
2022-08-12T04:47:17.735Z,2.50
2022-08-12T04:49:48.013Z,2.40
2022-08-12T04:52:17.754Z,2.90
2022-08-12T04:54:46.156Z,3.07
2022-08-12T04:57:14.035Z,2.40
2022-08-12T04:59:46.978Z,2.70
2022-08-12T05:02:16.963Z,2.53
2022-08-12T05:04:49.654Z,2.60
2022-08-12T05:07:18.811Z,2.27
2022-08-12T05:09:59.405Z,2.20
2022-08-12T05:12:35.765Z,2.30
2022-08-12T05:15:04.171Z,2.80
2022-08-12T05:17:48.064Z,2.50
2022-08-12T05:20:16.545Z,2.57
2022-08-12T05:22:45.789Z,2.17
2022-08-12T05:25:15.759Z,2.58
2022-08-12T05:27:58.092Z,2.40
2022-08-12T05:30:27.632Z,2.67
2022-08-12T05:32:59.047Z,2.22
2022-08-12T05:35:28.309Z,2.60
2022-08-12T05:38:11.325Z,2.65
2022-08-12T05:40:39.361Z,2.40
2022-08-12T05:43:07.771Z,2.33
2022-08-12T05:45:35.598Z,2.13
2022-08-12T05:48:03.799Z,2.10
2022-08-12T05:50:31.556Z,2.53
2022-08-12T05:53:00.775Z,2.22
2022-08-12T05:55:31.647Z,1.95
2022-08-12T05:57:59.699Z,2.15
2022-08-12T06:00:31.849Z,2.42
2022-08-12T06:03:01.788Z,2.17
2022-08-12T06:05:30.142Z,2.22
2022-08-12T06:08:01.716Z,2.13
2022-08-12T06:10:33.148Z,1.95
2022-08-12T06:13:02.120Z,2.03
2022-08-12T06:15:30.332Z,2.00
2022-08-12T06:18:05.348Z,2.17
2022-08-12T06:20:40.665Z,2.38
2022-08-12T06:23:11.720Z,2.53
2022-08-12T06:25:42.018Z,2.10
2022-08-12T06:28:17.375Z,1.75
2022-08-12T06:31:08.258Z,1.80
2022-08-12T06:34:00.738Z,1.70
2022-08-12T06:36:30.057Z,1.30
2022-08-12T06:39:01.382Z,1.50
2022-08-12T06:42:02.426Z,1.60
2022-08-12T06:44:36.043Z,1.20
2022-08-12T06:47:03.948Z,1.42
2022-08-12T06:49:36.451Z,1.33
2022-08-12T06:52:07.327Z,1.70
2022-08-12T07:01:12.621Z,0.93
2022-08-12T07:03:40.672Z,0.98
2022-08-12T07:06:13.624Z,1.25
2022-08-12T07:08:43.871Z,1.00
2022-08-12T07:11:15.520Z,1.10
2022-08-12T07:14:11.729Z,0.80
2022-08-12T07:16:48.826Z,1.00
2022-08-12T07:19:17.280Z,0.90
2022-08-12T07:21:59.630Z,0.85
2022-08-12T07:24:30.607Z,1.17
2022-08-12T07:26:58.575Z,1.20
2022-08-12T07:30:02.526Z,1.02
2022-08-12T07:32:18.301Z,1.00
2022-08-12T07:34:47.355Z,1.35
2022-08-12T07:37:15.818Z,1.08
2022-08-12T07:39:50.670Z,0.95
2022-08-12T07:42:27.963Z,0.95
2022-08-12T07:44:56.274Z,0.98
2022-08-12T07:47:27.428Z,1.02
2022-08-12T07:50:03.332Z,0.85
2022-08-12T07:52:34.584Z,0.90
2022-08-12T07:55:02.840Z,1.00
2022-08-12T07:57:32.285Z,0.90
2022-08-12T08:00:04.752Z,1.15
2022-08-12T08:02:36.123Z,1.10
2022-08-12T08:05:05.329Z,1.10
2022-08-12T08:07:33.253Z,1.15
2022-08-12T08:10:03.817Z,1.27
2022-08-12T08:12:49.614Z,1.00
2022-08-12T08:15:17.925Z,1.17
2022-08-12T08:17:59.453Z,0.90
2022-08-12T08:20:29.354Z,0.90
2022-08-12T08:22:58.489Z,0.80
2022-08-12T08:25:35.769Z,1.40
2022-08-12T08:28:06.927Z,1.10
2022-08-12T08:30:38.166Z,1.33
2022-08-12T08:33:24.623Z,0.90
2022-08-12T08:35:58.840Z,1.00
2022-08-12T08:38:32.374Z,1.00
2022-08-12T08:42:16.790Z,0.80
2022-08-12T08:44:10.544Z,1.10
2022-08-12T08:46:38.476Z,0.88
2022-08-12T08:49:08.188Z,1.17
2022-08-12T08:51:36.403Z,1.08
2022-08-12T08:54:04.352Z,1.00
2022-08-12T08:56:32.216Z,1.25
2022-08-12T08:59:00.272Z,1.08
2022-08-12T09:01:37.730Z,1.20
2022-08-12T09:05:07.583Z,0.90
2022-08-12T09:06:58.470Z,1.08
2022-08-12T09:09:34.045Z,0.70
2022-08-12T09:15:19.035Z,0.90
2022-08-12T09:17:53.079Z,1.23
2022-08-12T09:20:29.318Z,0.90
2022-08-12T09:22:58.963Z,1.20
2022-08-12T09:25:33.606Z,1.00
2022-08-12T09:28:05.011Z,1.20
2022-08-12T09:30:50.803Z,1.17
2022-08-12T09:34:26.143Z,1.10
2022-08-12T09:36:08.144Z,1.00
2022-08-12T09:38:40.704Z,0.90
2022-08-12T09:42:35.204Z,0.98
2022-08-12T09:44:38.958Z,1.08
2022-08-12T09:47:10.788Z,1.13
2022-08-12T09:49:42.575Z,1.08
2022-08-12T09:52:15.594Z,1.20
2022-08-12T09:54:43.426Z,1.00
2022-08-12T09:58:44.598Z,1.25
2022-08-12T10:00:15.330Z,1.00
2022-08-12T10:03:04.554Z,1.17
2022-08-12T10:06:20.299Z,1.35
2022-08-12T10:08:30.361Z,1.52
2022-08-12T10:11:20.426Z,1.67
2022-08-12T10:13:50.100Z,1.48
2022-08-12T10:16:22.557Z,1.30
2022-08-12T10:18:53.516Z,1.45
2022-08-12T10:21:23.784Z,1.23
2022-08-12T10:23:56.620Z,1.48
2022-08-12T10:26:44.692Z,1.50
2022-08-12T10:30:03.146Z,1.40
2022-08-12T10:32:52.689Z,1.60
2022-08-12T10:35:09.815Z,1.42
2022-08-12T10:38:38.491Z,1.10
2022-08-12T10:40:32.298Z,1.40
2022-08-12T10:43:18.874Z,1.13
2022-08-12T10:45:49.159Z,0.98
2022-08-12T10:48:33.704Z,0.98
2022-08-12T10:51:51.859Z,1.20
2022-08-12T10:53:52.912Z,1.20
2022-08-12T10:56:22.233Z,0.90
2022-08-12T10:58:51.954Z,1.10
2022-08-12T11:01:49.198Z,0.90
2022-08-12T11:04:19.558Z,1.00
2022-08-12T11:07:03.566Z,0.65
2022-08-12T11:10:00.625Z,0.90
2022-08-12T11:12:55.830Z,1.20
2022-08-12T11:15:33.107Z,1.13
2022-08-12T11:18:12.136Z,1.10
2022-08-12T11:20:47.872Z,0.95
2022-08-12T11:23:36.203Z,1.05
2022-08-12T11:26:06.322Z,1.00
2022-08-12T11:28:38.313Z,1.00
2022-08-12T11:31:11.852Z,1.10
2022-08-12T11:34:05.951Z,1.10
2022-08-12T11:36:29.639Z,1.02
2022-08-12T11:38:58.662Z,0.90
2022-08-12T11:41:33.308Z,0.90
2022-08-12T11:44:35.883Z,1.00
2022-08-12T11:46:53.972Z,1.23
2022-08-12T11:49:31.512Z,1.05
2022-08-12T11:52:02.143Z,0.70
2022-08-12T11:54:30.529Z,1.05
2022-08-12T11:57:00.188Z,0.85
2022-08-12T12:02:21.342Z,0.95
2022-08-12T12:04:52.143Z,1.00
2022-08-12T12:07:21.090Z,1.00
2022-08-12T12:09:52.259Z,1.00
2022-08-12T12:12:22.903Z,1.20
2022-08-12T12:14:54.562Z,0.60
2022-08-12T12:17:23.706Z,0.80
2022-08-12T12:19:52.903Z,0.73
2022-08-12T12:22:23.732Z,0.82
2022-08-12T12:24:58.863Z,1.02
2022-08-12T12:28:05.636Z,1.10
2022-08-12T12:30:36.403Z,0.98
2022-08-12T12:33:05.837Z,1.00
2022-08-12T12:36:06.278Z,1.02
2022-08-12T12:38:25.455Z,0.65
2022-08-12T12:40:53.748Z,1.10
2022-08-12T12:43:37.201Z,1.08
2022-08-12T12:46:11.924Z,0.90
2022-08-12T12:48:44.029Z,0.70
2022-08-12T12:51:48.373Z,0.82
2022-08-12T12:54:10.049Z,0.85
2022-08-12T12:56:41.824Z,1.10
2022-08-12T12:59:34.977Z,1.08
2022-08-12T13:02:07.561Z,0.85
2022-08-12T13:04:37.357Z,1.17
2022-08-12T13:07:06.581Z,1.08
2022-08-12T13:09:35.997Z,0.90
2022-08-12T13:12:06.558Z,1.00
2022-08-12T13:14:39.616Z,1.10
2022-08-12T13:17:11.174Z,0.90
2022-08-12T13:19:46.574Z,1.00
2022-08-12T13:22:18.569Z,0.60
2022-08-12T13:24:46.960Z,0.90
2022-08-12T13:27:22.779Z,0.80
2022-08-12T13:30:00.857Z,0.90
2022-08-12T13:32:33.109Z,0.63
2022-08-12T13:35:04.603Z,1.00
2022-08-12T13:37:54.848Z,1.08
2022-08-12T13:40:24.863Z,0.82
2022-08-12T13:42:57.887Z,0.65
2022-08-12T13:45:27.060Z,0.75
2022-08-12T13:48:00.098Z,0.68
2022-08-12T13:50:32.709Z,0.90
2022-08-12T13:53:16.685Z,0.98
2022-08-12T13:56:01.337Z,0.95
2022-08-12T13:58:34.942Z,0.70
2022-08-12T14:01:05.931Z,0.95
2022-08-12T14:03:50.992Z,0.90
2022-08-12T14:06:20.529Z,0.70
2022-08-12T14:08:49.653Z,1.13
2022-08-12T14:11:18.898Z,0.77
2022-08-12T14:14:03.630Z,0.68
2022-08-12T14:16:49.180Z,0.70
2022-08-12T14:19:24.417Z,0.68
2022-08-12T14:21:59.564Z,0.70
2022-08-12T14:24:31.385Z,0.80
2022-08-12T14:27:02.597Z,1.00
2022-08-12T14:29:59.055Z,0.80
2022-08-12T14:32:19.138Z,0.80
2022-08-12T14:34:51.222Z,0.82
2022-08-12T14:37:56.265Z,0.75
2022-08-12T14:40:09.320Z,0.77
2022-08-12T14:42:37.257Z,0.95
2022-08-12T14:45:07.855Z,0.80
2022-08-12T14:47:51.424Z,0.65
2022-08-12T14:50:41.061Z,0.50
2022-08-12T14:59:23.361Z,1.02
2022-08-12T15:01:49.637Z,1.00
2022-08-12T15:04:28.477Z,1.00
2022-08-12T15:06:58.464Z,0.73
2022-08-12T15:09:29.095Z,0.70
2022-08-12T15:12:04.112Z,0.77
2022-08-12T15:14:32.360Z,0.77
2022-08-12T15:17:06.871Z,1.20
2022-08-12T15:20:31.611Z,0.68
2022-08-12T15:22:39.365Z,0.80
2022-08-12T15:25:17.822Z,0.60
2022-08-12T15:28:05.528Z,0.65
2022-08-12T15:30:37.142Z,0.85
2022-08-12T15:33:12.767Z,0.70
2022-08-12T15:35:52.216Z,0.93
2022-08-12T15:38:25.081Z,0.68
2022-08-12T15:40:55.259Z,1.00
2022-08-12T15:43:51.084Z,0.88
2022-08-12T15:46:15.442Z,0.93
2022-08-12T15:48:46.669Z,0.73
2022-08-12T15:51:57.459Z,0.88
2022-08-12T15:54:34.955Z,0.70
2022-08-12T15:57:08.288Z,0.75
2022-08-12T16:00:00.444Z,0.77
2022-08-12T16:02:29.722Z,0.90
2022-08-12T16:04:58.558Z,0.90
2022-08-12T16:07:32.639Z,0.60
2022-08-12T16:10:08.625Z,1.10
2022-08-12T16:12:43.224Z,1.33
2022-08-12T16:15:13.445Z,0.93
2022-08-12T16:18:15.215Z,1.02
2022-08-12T16:20:34.226Z,0.90
2022-08-12T16:23:27.020Z,0.77
2022-08-12T16:26:06.198Z,0.95
2022-08-12T16:28:41.377Z,1.10
2022-08-12T16:31:18.613Z,0.70
2022-08-12T16:33:58.841Z,0.90
2022-08-12T16:36:29.396Z,0.90
2022-08-12T16:38:57.612Z,1.08
2022-08-12T16:41:37.990Z,0.73
2022-08-12T16:44:08.507Z,0.93
2022-08-12T16:46:37.575Z,0.85
2022-08-12T16:49:13.446Z,0.88
2022-08-12T16:51:47.023Z,0.90
2022-08-12T16:54:17.111Z,0.90
2022-08-12T16:56:54.820Z,1.00
2022-08-12T16:59:31.031Z,1.00
2022-08-12T17:02:31.231Z,1.00
2022-08-12T17:05:01.024Z,0.80
2022-08-12T17:07:43.326Z,0.80
2022-08-12T17:10:18.514Z,0.77
2022-08-12T17:13:09.592Z,0.82
2022-08-12T17:15:57.915Z,0.85
2022-08-12T17:18:43.053Z,0.63
2022-08-12T17:21:15.265Z,0.75
2022-08-12T17:23:53.455Z,0.75
2022-08-12T17:26:22.737Z,1.10
2022-08-12T17:28:59.006Z,1.00
2022-08-12T17:31:59.277Z,0.80
2022-08-12T17:34:38.474Z,0.88
2022-08-12T17:37:07.233Z,1.00
2022-08-12T17:40:12.800Z,1.00
2022-08-12T17:42:35.284Z,0.80
2022-08-12T17:45:17.727Z,1.10
2022-08-12T17:48:02.121Z,1.00
2022-08-12T17:50:36.668Z,0.75
2022-08-12T17:53:05.814Z,0.90
2022-08-12T17:55:44.344Z,1.20
2022-08-12T17:58:17.938Z,1.08
2022-08-12T18:00:50.390Z,1.02
2022-08-12T18:04:05.269Z,1.00
2022-08-12T18:06:14.712Z,1.10
2022-08-12T18:08:54.892Z,0.80
2022-08-12T18:12:05.504Z,1.10
2022-08-12T18:14:30.199Z,0.90
2022-08-12T18:17:01.705Z,0.90
2022-08-12T18:19:34.069Z,0.80
2022-08-12T18:22:22.055Z,0.75
2022-08-12T18:25:02.319Z,0.80
2022-08-12T18:27:45.701Z,0.70
2022-08-12T18:30:29.321Z,0.82
2022-08-12T18:33:04.599Z,1.02
2022-08-12T18:35:46.284Z,1.02
2022-08-12T18:38:17.545Z,1.00
2022-08-12T18:41:04.453Z,1.10
2022-08-12T18:43:38.994Z,1.05
2022-08-12T18:46:32.995Z,1.00
2022-08-12T18:49:17.117Z,0.90
2022-08-12T18:51:55.179Z,1.00
2022-08-12T18:54:25.563Z,0.85
2022-08-12T18:56:54.973Z,1.00
2022-08-12T19:00:01.303Z,0.80
2022-08-12T19:02:21.034Z,0.90
2022-08-12T19:04:53.550Z,0.65
2022-08-12T19:07:24.037Z,0.80
2022-08-12T19:09:58.317Z,1.45
2022-08-12T19:12:55.378Z,1.20
2022-08-12T19:15:30.043Z,0.90
2022-08-12T19:18:02.361Z,0.83
2022-08-12T19:20:32.934Z,0.90
2022-08-12T19:23:07.958Z,0.90
2022-08-12T19:25:59.374Z,0.80
2022-08-12T19:28:35.402Z,1.30
2022-08-12T19:31:56.565Z,0.80
2022-08-12T19:37:20.219Z,1.13
2022-08-12T19:40:08.886Z,1.00
2022-08-12T19:42:42.678Z,1.00
2022-08-12T19:45:15.841Z,1.20
2022-08-12T19:47:46.487Z,1.10
2022-08-12T19:50:20.020Z,1.00
2022-08-12T19:52:51.253Z,0.97
2022-08-12T19:55:23.266Z,1.00
2022-08-12T19:58:01.475Z,1.33
2022-08-12T20:00:30.683Z,1.10
2022-08-12T20:03:00.832Z,0.87
2022-08-12T20:06:04.595Z,1.03
2022-08-12T20:08:33.988Z,1.10
2022-08-12T20:12:12.294Z,0.97
2022-08-12T20:14:01.751Z,0.90
2022-08-12T20:16:57.450Z,0.80
2022-08-12T20:19:28.509Z,0.70
2022-08-12T20:22:23.333Z,0.80
2022-08-12T20:24:55.299Z,1.27
2022-08-12T20:27:29.330Z,0.90
2022-08-12T20:30:14.949Z,0.77
2022-08-12T20:32:53.856Z,1.10
2022-08-12T20:35:24.808Z,0.80
2022-08-12T20:38:07.280Z,1.00
2022-08-12T20:40:42.602Z,0.80
2022-08-12T20:43:24.010Z,0.83
2022-08-12T20:45:57.784Z,0.70
2022-08-12T20:48:28.677Z,1.20
2022-08-12T20:50:57.903Z,0.90
2022-08-12T20:53:54.033Z,1.10
2022-08-12T20:56:31.195Z,0.80
2022-08-12T20:59:01.072Z,0.80
2022-08-12T21:01:45.894Z,0.93
2022-08-12T21:04:33.591Z,0.70
2022-08-12T21:07:08.487Z,0.63
2022-08-12T21:09:41.755Z,0.63
2022-08-12T21:12:31.434Z,0.90
2022-08-12T21:15:23.464Z,0.50
2022-08-12T21:18:10.933Z,0.60
2022-08-12T21:20:44.440Z,0.60
2022-08-12T21:23:13.703Z,0.70
2022-08-12T21:25:45.065Z,0.70
2022-08-12T21:28:15.229Z,0.90
2022-08-12T21:34:31.409Z,0.60
2022-08-12T21:37:13.012Z,0.50
2022-08-12T21:39:53.311Z,0.63
2022-08-12T21:42:28.005Z,0.40
2022-08-12T21:45:47.442Z,0.60
2022-08-12T21:47:46.696Z,0.70
2022-08-12T21:50:21.231Z,0.40
2022-08-12T21:52:50.248Z,0.70
2022-08-12T21:55:20.254Z,0.73
2022-08-12T21:57:53.555Z,0.60
2022-08-12T22:00:32.405Z,0.50
2022-08-12T22:04:01.779Z,0.60
2022-08-12T22:06:30.937Z,0.50
2022-08-12T22:09:16.472Z,0.60
2022-08-12T22:11:56.964Z,0.60
2022-08-12T22:14:29.037Z,0.60
2022-08-12T22:17:01.324Z,0.70
2022-08-12T22:19:34.947Z,0.50
2022-08-12T22:22:05.059Z,0.60
2022-08-12T22:24:33.202Z,0.40
2022-08-12T22:27:08.270Z,0.33
2022-08-12T22:30:07.780Z,0.67
2022-08-12T22:32:44.682Z,0.53
2022-08-12T22:35:55.914Z,0.70
2022-08-12T22:38:20.663Z,0.40
2022-08-12T22:40:49.703Z,0.80
2022-08-12T22:43:36.540Z,0.53
2022-08-12T22:46:42.007Z,0.50
2022-08-12T22:49:26.155Z,0.50
2022-08-12T22:52:08.360Z,0.60
2022-08-12T22:54:37.768Z,0.40
2022-08-12T22:57:23.611Z,0.47
2022-08-12T23:00:23.526Z,0.40
2022-08-12T23:02:58.327Z,0.50
2022-08-12T23:05:57.291Z,0.50
2022-08-12T23:08:21.652Z,0.50
2022-08-12T23:10:50.157Z,0.50
2022-08-12T23:13:43.395Z,0.43
2022-08-12T23:16:28.633Z,0.50
2022-08-12T23:19:09.256Z,0.70
2022-08-12T23:22:06.714Z,0.43
2022-08-12T23:24:32.215Z,0.50
2022-08-12T23:27:20.908Z,0.80
2022-08-12T23:30:18.061Z,0.80
2022-08-12T23:32:37.610Z,0.50
2022-08-12T23:35:07.615Z,0.70
2022-08-12T23:37:47.796Z,0.60
2022-08-12T23:40:22.301Z,0.60
2022-08-12T23:42:53.935Z,0.83
2022-08-12T23:45:31.338Z,1.00
2022-08-12T23:48:00.012Z,0.73
2022-08-12T23:50:34.630Z,0.60
2022-08-12T23:53:06.663Z,0.73
2022-08-12T23:55:45.459Z,0.47
2022-08-12T23:58:21.166Z,0.60
